createdAt,value
2022-08-17T00:00:01.638Z,17.77
2022-08-17T00:02:29.701Z,17.08
2022-08-17T00:04:58.572Z,17.13
2022-08-17T00:07:25.840Z,15.98
2022-08-17T00:09:52.995Z,16.63
2022-08-17T00:12:41.280Z,18.17
2022-08-17T00:15:10.543Z,17.85
2022-08-17T00:17:38.833Z,16.50
2022-08-17T00:20:06.843Z,15.80
2022-08-17T00:22:36.406Z,15.95
2022-08-17T00:25:07.534Z,15.20
2022-08-17T00:27:38.003Z,14.95
2022-08-17T00:30:07.588Z,15.30
2022-08-17T00:33:12.227Z,15.70
2022-08-17T00:35:40.663Z,16.50
2022-08-17T00:38:10.312Z,16.50
2022-08-17T00:40:44.617Z,16.20
2022-08-17T00:43:27.208Z,15.90
2022-08-17T00:45:55.197Z,16.45
2022-08-17T00:48:30.038Z,15.75
2022-08-17T00:51:03.776Z,16.95
2022-08-17T00:53:33.847Z,20.02
2022-08-17T00:56:03.590Z,19.52
2022-08-17T00:58:36.228Z,20.23
2022-08-17T01:01:05.435Z,21.90
2022-08-17T01:03:33.694Z,22.50
2022-08-17T01:06:04.714Z,23.52
2022-08-17T01:08:33.455Z,23.40
2022-08-17T01:11:05.813Z,23.50
2022-08-17T01:13:41.268Z,24.55
2022-08-17T01:16:26.282Z,26.33
2022-08-17T01:19:02.722Z,25.70
2022-08-17T01:22:00.803Z,25.00
2022-08-17T01:24:29.388Z,24.52
2022-08-17T01:26:57.719Z,24.85
2022-08-17T01:29:26.145Z,27.08
2022-08-17T01:31:56.949Z,27.55
2022-08-17T01:34:42.873Z,26.65
2022-08-17T01:37:13.344Z,26.00
2022-08-17T01:39:45.623Z,27.15
2022-08-17T01:42:36.813Z,27.58
2022-08-17T01:45:11.917Z,25.85
2022-08-17T01:47:39.209Z,25.25
2022-08-17T01:50:12.184Z,25.00
2022-08-17T01:52:40.453Z,25.77
2022-08-17T01:55:10.106Z,24.55
2022-08-17T01:57:37.319Z,25.05
2022-08-17T02:00:10.490Z,25.58
2022-08-17T02:02:37.438Z,25.15
2022-08-17T02:05:05.376Z,26.70
2022-08-17T02:07:32.533Z,27.75
2022-08-17T02:10:20.281Z,26.45
2022-08-17T02:12:49.326Z,26.42
2022-08-17T02:15:16.542Z,27.63
2022-08-17T02:17:43.600Z,27.15
2022-08-17T02:20:11.520Z,25.95
2022-08-17T02:22:40.322Z,25.83
2022-08-17T02:25:09.902Z,27.67
2022-08-17T02:27:39.037Z,26.55
2022-08-17T02:31:00.254Z,26.60
2022-08-17T02:32:56.475Z,27.33
2022-08-17T02:35:23.919Z,27.15
2022-08-17T02:37:51.951Z,25.70
2022-08-17T02:40:35.755Z,27.13
2022-08-17T02:43:05.486Z,26.55
2022-08-17T02:45:32.730Z,24.88
2022-08-17T02:47:59.773Z,27.23
2022-08-17T02:50:27.235Z,26.83
2022-08-17T02:53:01.747Z,25.60
2022-08-17T02:55:36.361Z,25.92
2022-08-17T02:58:04.409Z,26.20
2022-08-17T03:00:35.452Z,27.75
2022-08-17T03:03:05.865Z,26.38
2022-08-17T03:05:35.578Z,26.52
2022-08-17T03:08:05.773Z,27.30
2022-08-17T03:10:33.341Z,27.50
2022-08-17T03:13:00.850Z,26.38
2022-08-17T03:15:31.750Z,26.77
2022-08-17T03:17:59.857Z,25.15
2022-08-17T03:20:28.669Z,26.33
2022-08-17T03:23:02.980Z,27.00
2022-08-17T03:25:37.540Z,26.63
2022-08-17T03:28:06.563Z,24.95
2022-08-17T03:30:34.520Z,24.02
2022-08-17T03:33:04.986Z,24.65
2022-08-17T03:35:34.811Z,25.85
2022-08-17T03:38:02.629Z,23.83
2022-08-17T03:40:34.449Z,25.15
2022-08-17T03:43:19.384Z,25.42
2022-08-17T03:46:05.026Z,23.42
2022-08-17T03:48:51.558Z,25.50
2022-08-17T03:51:48.367Z,26.75
2022-08-17T03:54:33.781Z,24.85
2022-08-17T03:57:05.583Z,24.98
2022-08-17T03:59:33.555Z,24.80
2022-08-17T04:02:13.557Z,26.80
2022-08-17T04:04:40.994Z,25.27
2022-08-17T04:07:08.242Z,25.33
2022-08-17T04:09:36.840Z,26.23
2022-08-17T04:12:05.435Z,24.63
2022-08-17T04:14:51.890Z,25.45
2022-08-17T04:17:23.439Z,25.33
2022-08-17T04:19:50.586Z,26.15
2022-08-17T04:22:32.737Z,26.63
2022-08-17T04:25:08.920Z,27.58
2022-08-17T04:27:36.551Z,28.20
2022-08-17T04:30:07.555Z,28.38
2022-08-17T04:33:06.217Z,27.90
2022-08-17T04:35:38.590Z,26.55
2022-08-17T04:38:07.463Z,30.50
2022-08-17T04:40:52.969Z,28.55
2022-08-17T04:43:22.147Z,26.92
2022-08-17T04:45:56.240Z,27.33
2022-08-17T04:48:37.362Z,26.27
2022-08-17T04:51:08.599Z,27.67
2022-08-17T04:53:35.851Z,27.05
2022-08-17T04:56:03.073Z,26.05
2022-08-17T04:58:30.268Z,25.30
2022-08-17T05:00:57.848Z,25.27
2022-08-17T05:03:25.055Z,25.92
2022-08-17T05:05:52.177Z,24.95
2022-08-17T05:08:20.986Z,25.67
2022-08-17T05:10:49.343Z,25.65
2022-08-17T05:13:24.306Z,25.08
2022-08-17T05:15:55.761Z,25.88
2022-08-17T05:18:24.431Z,24.55
2022-08-17T05:20:52.601Z,24.15
2022-08-17T05:23:21.195Z,24.77
2022-08-17T05:25:50.783Z,25.30
2022-08-17T05:28:24.122Z,25.25
2022-08-17T05:30:55.361Z,28.40
2022-08-17T05:33:25.574Z,26.40
2022-08-17T05:35:55.003Z,24.55
2022-08-17T05:38:24.554Z,27.02
2022-08-17T05:40:52.788Z,26.15
2022-08-17T05:43:25.746Z,26.30
2022-08-17T05:46:22.922Z,25.83
2022-08-17T05:48:53.034Z,29.17
2022-08-17T05:51:59.239Z,28.02
2022-08-17T05:54:28.962Z,27.23
2022-08-17T05:57:34.591Z,28.52
2022-08-17T06:00:26.230Z,27.30
2022-08-17T06:03:11.365Z,28.33
2022-08-17T06:05:59.673Z,28.33
2022-08-17T06:08:37.140Z,27.83
2022-08-17T06:11:39.110Z,32.22
2022-08-17T06:14:30.984Z,29.73
2022-08-17T06:17:06.391Z,39.58
2022-08-17T06:19:42.182Z,30.90
2022-08-17T06:22:13.648Z,30.60
2022-08-17T06:24:51.637Z,29.90
2022-08-17T06:27:46.197Z,30.52
2022-08-17T06:30:15.565Z,31.38
2022-08-17T06:32:45.380Z,29.67
2022-08-17T06:35:16.973Z,29.10
2022-08-17T06:38:05.084Z,30.58
2022-08-17T06:40:47.368Z,31.33
2022-08-17T06:43:51.516Z,31.67
2022-08-17T06:46:33.408Z,31.40
2022-08-17T06:49:22.169Z,31.13
2022-08-17T06:52:07.576Z,31.80
2022-08-17T06:55:00.445Z,31.83
2022-08-17T06:57:33.270Z,31.17
2022-08-17T07:00:17.619Z,30.05
2022-08-17T07:03:07.246Z,31.33
2022-08-17T07:05:37.362Z,30.92
2022-08-17T07:08:35.176Z,30.00
2022-08-17T07:11:32.436Z,32.03
2022-08-17T07:14:17.276Z,31.83
2022-08-17T07:16:49.084Z,31.55
2022-08-17T07:19:18.783Z,30.75
2022-08-17T07:22:06.036Z,30.88
2022-08-17T07:24:47.485Z,31.70
2022-08-17T07:27:31.386Z,30.60
2022-08-17T07:30:06.780Z,32.15
2022-08-17T07:32:45.516Z,32.83
2022-08-17T07:35:41.240Z,31.40
2022-08-17T07:38:24.958Z,31.50
2022-08-17T07:41:03.085Z,31.05
2022-08-17T07:43:35.793Z,33.97
2022-08-17T07:46:30.590Z,30.15
2022-08-17T07:49:23.484Z,31.15
2022-08-17T07:51:51.420Z,33.03
2022-08-17T07:54:35.870Z,31.65
2022-08-17T07:57:08.792Z,29.95
2022-08-17T07:59:38.826Z,34.58
2022-08-17T08:02:17.795Z,33.40
2022-08-17T08:05:01.205Z,33.35
2022-08-17T08:07:50.640Z,35.50
2022-08-17T08:10:27.947Z,33.50
2022-08-17T08:13:12.307Z,33.85
2022-08-17T08:15:53.666Z,35.03
2022-08-17T08:18:53.636Z,34.85
2022-08-17T08:21:59.205Z,30.55
2022-08-17T08:24:44.970Z,33.17
2022-08-17T08:27:34.992Z,32.75
2022-08-17T08:30:06.686Z,31.70
2022-08-17T08:32:57.705Z,31.67
2022-08-17T08:35:44.575Z,30.52
2022-08-17T08:38:28.273Z,28.73
2022-08-17T08:41:30.667Z,29.92
2022-08-17T08:45:01.096Z,29.47
2022-08-17T08:47:37.645Z,28.58
2022-08-17T08:50:37.110Z,27.95
2022-08-17T08:53:14.511Z,28.45
2022-08-17T08:55:51.165Z,28.67
2022-08-17T08:58:31.467Z,27.80
2022-08-17T09:01:18.466Z,26.77
2022-08-17T09:04:23.251Z,25.95
2022-08-17T09:07:08.431Z,27.08
2022-08-17T09:10:05.218Z,30.02
2022-08-17T09:12:56.560Z,27.23
2022-08-17T09:15:28.702Z,26.25
2022-08-17T09:18:59.369Z,25.58
2022-08-17T09:20:55.796Z,25.77
2022-08-17T09:23:39.157Z,24.80
2022-08-17T09:26:25.600Z,24.67
2022-08-17T09:28:55.969Z,24.90
2022-08-17T09:31:33.149Z,23.05
2022-08-17T09:34:09.268Z,21.90
2022-08-17T09:36:44.868Z,22.02
2022-08-17T09:39:20.494Z,23.60
2022-08-17T09:42:05.048Z,25.75
2022-08-17T09:44:49.744Z,26.17
2022-08-17T09:47:32.748Z,24.80
2022-08-17T09:51:05.013Z,22.58
2022-08-17T09:53:17.942Z,21.90
2022-08-17T09:56:20.012Z,22.20
2022-08-17T09:59:22.634Z,20.95
2022-08-17T10:02:16.806Z,20.65
2022-08-17T10:04:58.806Z,18.88
2022-08-17T10:07:36.896Z,16.83
2022-08-17T10:10:56.748Z,17.67
2022-08-17T10:13:41.811Z,18.23
2022-08-17T10:16:23.388Z,17.42
2022-08-17T10:19:07.381Z,17.23
2022-08-17T10:22:01.083Z,17.70
2022-08-17T10:25:23.416Z,15.88
2022-08-17T10:28:02.032Z,14.63
2022-08-17T10:30:33.023Z,15.13
2022-08-17T10:33:15.806Z,12.00
2022-08-17T10:38:40.173Z,12.02
2022-08-17T10:41:33.895Z,10.93
2022-08-17T10:44:41.078Z,13.40
2022-08-17T10:47:15.260Z,13.20
2022-08-17T10:49:54.354Z,14.65
2022-08-17T10:52:22.122Z,14.30
2022-08-17T10:54:51.873Z,13.75
2022-08-17T10:57:31.937Z,13.45
2022-08-17T11:00:00.674Z,13.70
2022-08-17T11:02:31.658Z,14.43
2022-08-17T11:05:14.539Z,14.38
2022-08-17T11:08:05.410Z,13.90
2022-08-17T11:10:57.214Z,13.63
2022-08-17T11:13:45.168Z,13.70
2022-08-17T11:16:53.467Z,13.50
2022-08-17T11:19:57.869Z,12.43
2022-08-17T11:22:44.602Z,13.77
2022-08-17T11:25:31.972Z,13.02
2022-08-17T11:28:34.742Z,11.98
2022-08-17T11:31:38.373Z,9.77
2022-08-17T11:34:19.009Z,10.68
2022-08-17T11:37:01.922Z,10.57
2022-08-17T11:40:08.493Z,10.88
2022-08-17T11:42:50.480Z,10.13
2022-08-17T11:45:32.491Z,9.65
2022-08-17T11:48:55.377Z,9.25
2022-08-17T11:51:55.118Z,10.07
2022-08-17T11:54:33.751Z,10.50
2022-08-17T11:57:21.686Z,9.13
2022-08-17T11:59:48.550Z,8.63
2022-08-17T12:02:35.228Z,8.50
2022-08-17T12:05:13.273Z,8.45
2022-08-17T12:08:07.246Z,7.43
2022-08-17T12:10:36.865Z,7.47
2022-08-17T12:13:13.417Z,6.80
2022-08-17T12:15:48.880Z,7.07
2022-08-17T12:18:20.646Z,7.72
2022-08-17T12:21:01.662Z,7.45
2022-08-17T12:23:57.710Z,6.63
2022-08-17T12:26:33.543Z,7.13
2022-08-17T12:29:04.168Z,7.32
2022-08-17T12:31:53.039Z,6.40
2022-08-17T12:34:36.180Z,7.07
2022-08-17T12:37:08.288Z,6.30
2022-08-17T12:39:35.360Z,7.65
2022-08-17T12:42:03.468Z,6.68
2022-08-17T12:44:36.468Z,6.20
2022-08-17T12:47:22.251Z,5.85
2022-08-17T12:49:54.758Z,5.25
2022-08-17T12:52:33.466Z,5.45
2022-08-17T12:55:02.118Z,5.65
2022-08-17T12:57:41.261Z,5.80
2022-08-17T13:00:13.917Z,5.70
2022-08-17T13:02:51.380Z,5.55
2022-08-17T13:05:27.758Z,6.47
2022-08-17T13:07:57.776Z,5.72
2022-08-17T13:10:32.131Z,6.78
2022-08-17T13:13:05.540Z,6.40
2022-08-17T13:15:44.849Z,6.55
2022-08-17T13:18:39.234Z,7.38
2022-08-17T13:21:19.010Z,7.32
2022-08-17T13:24:04.416Z,6.95
2022-08-17T13:26:44.654Z,6.68
2022-08-17T13:29:27.729Z,6.72
2022-08-17T13:32:19.824Z,7.32
2022-08-17T13:35:12.012Z,8.75
2022-08-17T13:40:08.247Z,12.55
2022-08-17T13:42:52.724Z,12.70
2022-08-17T13:45:36.179Z,11.63
2022-08-17T13:48:13.770Z,11.93
2022-08-17T13:51:11.215Z,14.10
2022-08-17T13:53:37.979Z,13.20
2022-08-17T13:56:37.037Z,13.52
2022-08-17T13:59:04.574Z,12.27
2022-08-17T14:04:13.703Z,13.18
2022-08-17T14:07:24.946Z,8.27
2022-08-17T14:10:09.440Z,4.65
2022-08-17T14:12:39.951Z,5.97
2022-08-17T14:15:08.787Z,4.13
2022-08-17T14:17:38.831Z,3.90
2022-08-17T14:20:09.751Z,3.88
2022-08-17T14:22:40.845Z,4.70
2022-08-17T14:25:08.665Z,4.25
2022-08-17T14:27:47.465Z,5.20
2022-08-17T14:30:22.567Z,4.65
2022-08-17T14:32:52.002Z,5.28
2022-08-17T14:35:24.311Z,5.10
2022-08-17T14:37:52.515Z,5.22
2022-08-17T14:40:21.030Z,6.38
2022-08-17T14:42:48.308Z,5.22
2022-08-17T14:45:29.939Z,10.48
2022-08-17T14:47:59.425Z,5.53
2022-08-17T14:50:27.373Z,7.68
2022-08-17T14:52:57.880Z,7.18
2022-08-17T14:55:26.220Z,6.65
2022-08-17T14:57:53.401Z,7.78
2022-08-17T15:00:20.399Z,8.05
2022-08-17T15:02:53.902Z,9.02
2022-08-17T15:05:23.852Z,7.43
2022-08-17T15:07:51.012Z,6.82
2022-08-17T15:10:18.153Z,6.78
2022-08-17T15:12:45.661Z,12.35
2022-08-17T15:15:16.087Z,8.40
2022-08-17T15:17:46.039Z,8.60
2022-08-17T15:20:33.485Z,7.55
2022-08-17T15:23:00.677Z,8.27
2022-08-17T15:25:32.122Z,7.85
2022-08-17T15:28:00.284Z,9.40
2022-08-17T15:30:27.765Z,9.50
2022-08-17T15:32:56.893Z,8.38
2022-08-17T15:35:27.995Z,9.65
2022-08-17T15:38:06.282Z,10.55
2022-08-17T15:40:43.749Z,9.98
2022-08-17T15:43:17.359Z,8.68
2022-08-17T15:45:45.002Z,7.95
2022-08-17T15:48:40.969Z,8.52
2022-08-17T15:51:15.260Z,6.20
2022-08-17T15:53:44.838Z,6.38
2022-08-17T15:56:13.893Z,6.50
2022-08-17T15:58:42.510Z,6.30
2022-08-17T16:01:16.584Z,4.75
2022-08-17T16:04:04.096Z,4.68
2022-08-17T16:06:33.830Z,4.53
2022-08-17T16:09:00.835Z,5.05
2022-08-17T16:11:27.760Z,4.57
2022-08-17T16:13:56.023Z,5.65
2022-08-17T16:16:23.862Z,5.40
2022-08-17T16:18:54.528Z,5.43
2022-08-17T16:21:31.146Z,6.03
2022-08-17T16:24:13.447Z,5.80
2022-08-17T16:26:40.729Z,6.00
2022-08-17T16:29:08.450Z,6.13
2022-08-17T16:31:36.352Z,8.50
2022-08-17T16:34:17.458Z,6.40
2022-08-17T16:36:54.852Z,7.22
2022-08-17T16:39:29.256Z,5.80
2022-08-17T16:41:57.243Z,6.28
2022-08-17T16:44:24.320Z,6.32
2022-08-17T16:46:51.279Z,5.72
2022-08-17T16:49:35.706Z,6.43
2022-08-17T16:52:04.530Z,6.32
2022-08-17T16:54:31.474Z,5.80
2022-08-17T16:56:58.313Z,5.53
2022-08-17T16:59:31.240Z,5.38
2022-08-17T17:02:11.185Z,5.47
2022-08-17T17:04:45.788Z,7.40
2022-08-17T17:07:41.647Z,6.90
2022-08-17T17:10:13.497Z,5.18
2022-08-17T17:13:02.041Z,5.60
2022-08-17T17:15:39.845Z,6.43
2022-08-17T17:18:11.765Z,5.57
2022-08-17T17:21:12.521Z,5.65
2022-08-17T17:23:42.110Z,6.25
2022-08-17T17:26:35.531Z,6.70
2022-08-17T17:29:28.769Z,5.70
2022-08-17T17:32:21.155Z,5.65
2022-08-17T17:34:55.271Z,6.10
2022-08-17T17:37:32.650Z,6.60
2022-08-17T17:40:05.280Z,9.93
2022-08-17T17:42:33.609Z,7.47
2022-08-17T17:45:13.837Z,6.90
2022-08-17T17:47:40.914Z,6.70
2022-08-17T17:50:08.656Z,6.78
2022-08-17T17:52:47.291Z,7.07
2022-08-17T17:55:42.895Z,8.20
2022-08-17T17:58:38.958Z,7.78
2022-08-17T18:01:14.786Z,7.65
2022-08-17T18:04:04.662Z,7.95
2022-08-17T18:07:00.463Z,8.02
2022-08-17T18:09:27.285Z,7.72
2022-08-17T18:11:59.146Z,8.88
2022-08-17T18:14:35.683Z,9.15
2022-08-17T18:17:02.634Z,8.38
2022-08-17T18:19:31.119Z,9.27
2022-08-17T18:22:14.488Z,7.95
2022-08-17T18:24:44.932Z,9.35
2022-08-17T18:27:33.547Z,8.30
2022-08-17T18:30:21.768Z,8.77
2022-08-17T18:32:48.756Z,7.70
2022-08-17T18:35:18.371Z,8.57
2022-08-17T18:38:07.970Z,8.73
2022-08-17T18:40:37.827Z,8.48
2022-08-17T18:43:12.595Z,7.72
2022-08-17T18:45:47.558Z,8.73
2022-08-17T18:48:27.242Z,7.20
2022-08-17T18:50:58.500Z,7.70
2022-08-17T18:53:35.237Z,7.25
2022-08-17T18:56:34.362Z,8.07
2022-08-17T18:59:10.686Z,7.22
2022-08-17T19:02:05.088Z,11.48
2022-08-17T19:05:12.082Z,8.18
2022-08-17T19:07:46.436Z,8.20
2022-08-17T19:10:46.092Z,8.65
2022-08-17T19:13:24.340Z,7.85
2022-08-17T19:16:20.770Z,7.88
2022-08-17T19:19:16.592Z,10.00
2022-08-17T19:21:57.315Z,8.13
2022-08-17T19:24:27.530Z,7.35
2022-08-17T19:27:06.984Z,7.78
2022-08-17T19:29:57.066Z,8.40
2022-08-17T19:32:32.629Z,7.25
2022-08-17T19:35:01.364Z,7.32
2022-08-17T19:37:31.398Z,7.53
2022-08-17T19:40:35.027Z,7.60
2022-08-17T19:43:48.363Z,7.07
2022-08-17T19:46:35.714Z,7.15
2022-08-17T19:49:33.475Z,6.53
2022-08-17T19:52:40.070Z,7.68
2022-08-17T19:55:20.716Z,6.70
2022-08-17T19:58:10.904Z,6.10
2022-08-17T20:00:47.330Z,6.93
2022-08-17T20:03:23.894Z,7.18
2022-08-17T20:06:12.176Z,6.85
2022-08-17T20:08:49.552Z,7.13
2022-08-17T20:11:31.814Z,7.70
2022-08-17T20:14:15.124Z,7.45
2022-08-17T20:16:42.355Z,7.63
2022-08-17T20:19:33.945Z,8.65
2022-08-17T20:22:18.082Z,6.32
2022-08-17T20:24:45.335Z,5.50
2022-08-17T20:27:12.430Z,5.68
2022-08-17T20:30:04.587Z,5.35
2022-08-17T20:32:35.768Z,5.27
2022-08-17T20:35:21.107Z,5.25
2022-08-17T20:37:59.015Z,5.45
2022-08-17T20:40:35.543Z,5.00
2022-08-17T20:43:31.597Z,4.40
2022-08-17T20:46:32.611Z,4.20
2022-08-17T20:49:19.895Z,3.90
2022-08-17T20:52:03.088Z,3.20
2022-08-17T20:54:54.397Z,3.78
2022-08-17T20:57:33.834Z,4.18
2022-08-17T21:00:17.401Z,4.70
2022-08-17T21:03:07.781Z,3.95
2022-08-17T21:06:17.121Z,3.53
2022-08-17T21:09:07.268Z,4.00
2022-08-17T21:11:59.980Z,3.88
2022-08-17T21:14:38.287Z,3.33
2022-08-17T21:17:31.761Z,3.47
2022-08-17T21:20:12.153Z,3.95
2022-08-17T21:23:07.295Z,6.85
2022-08-17T21:26:10.857Z,4.95
2022-08-17T21:29:00.241Z,3.83
2022-08-17T21:31:35.797Z,4.00
2022-08-17T21:34:20.799Z,4.25
2022-08-17T21:36:48.816Z,3.70
2022-08-17T21:39:23.285Z,5.03
2022-08-17T21:42:01.147Z,4.28
2022-08-17T21:44:38.010Z,4.97
2022-08-17T21:47:24.061Z,3.97
2022-08-17T21:49:55.191Z,4.07
2022-08-17T21:52:26.931Z,5.70
2022-08-17T21:54:57.391Z,4.53
2022-08-17T21:57:28.167Z,4.22
2022-08-17T22:00:01.470Z,4.00
2022-08-17T22:02:36.380Z,4.18
2022-08-17T22:05:09.008Z,4.10
2022-08-17T22:10:30.028Z,4.20
2022-08-17T22:13:04.855Z,3.80
2022-08-17T22:15:31.944Z,3.78
2022-08-17T22:18:04.398Z,3.65
2022-08-17T22:20:31.466Z,3.53
2022-08-17T22:23:19.562Z,3.42
2022-08-17T22:26:00.259Z,3.35
2022-08-17T22:28:45.812Z,3.00
2022-08-17T22:31:16.421Z,2.88
2022-08-17T22:33:45.973Z,2.78
2022-08-17T22:36:33.232Z,3.10
2022-08-17T22:39:07.620Z,2.60
2022-08-17T22:42:00.488Z,3.35
2022-08-17T22:44:35.783Z,2.90
2022-08-17T22:47:24.405Z,3.50
2022-08-17T22:49:57.965Z,3.72
2022-08-17T22:52:35.254Z,3.53
2022-08-17T22:55:32.728Z,3.05
2022-08-17T22:58:19.381Z,3.35
2022-08-17T23:00:49.172Z,3.35
2022-08-17T23:03:21.036Z,3.45
2022-08-17T23:06:09.088Z,2.13
2022-08-17T23:08:50.392Z,2.97
2022-08-17T23:11:17.257Z,3.38
2022-08-17T23:13:44.601Z,3.50
2022-08-17T23:16:11.461Z,2.97
2022-08-17T23:18:38.755Z,3.15
2022-08-17T23:21:07.595Z,3.53
2022-08-17T23:23:35.433Z,3.30
2022-08-17T23:26:10.598Z,3.00
2022-08-17T23:28:38.222Z,3.00
2022-08-17T23:31:05.726Z,3.42
2022-08-17T23:33:38.814Z,3.63
2022-08-17T23:36:09.021Z,3.55
2022-08-17T23:38:36.679Z,3.67
2022-08-17T23:41:11.922Z,3.08
2022-08-17T23:43:40.089Z,3.88
2022-08-17T23:46:07.424Z,3.25
2022-08-17T23:48:36.557Z,3.80
2022-08-17T23:51:18.281Z,3.15
2022-08-17T23:53:49.385Z,3.17
2022-08-17T23:56:19.786Z,3.70
2022-08-17T23:58:46.657Z,4.20
